^^
Station Historical Data
Daily Summary for April 20, 2021 Units:  English    Metric   Both
Daily Weekly Monthly Yearly
  High: Low: Average:
Temperature: 41.4 °F 32.7 °F 36.3 °F
Dew Point: 28.2 °F 21.2 °F 24.6 °F
Humidity: 74% 48% 63%
Wind Speed: 12mph 2mph 6mph
Wind Gust: 17mph - -
Wind- - WSW
Pressure: 30.03 in 29.85 in -
Precipitation: 0.00 in    
 
 
Tabular Data for April 20, 2021
Time Temperature Dew Point Pressure Wind Wind Speed Wind Gust Humidity Rainfall Rate (Hourly) solar
00:10 37.4 °F 28.2 °F 29.85 in NW 10 mph 10 mph 69% 0.00 in 0 W/m2
00:15 37.2 °F 28 °F 29.85 in WNW 10 mph 10 mph 69% 0.00 in 0 W/m2
00:20 37.1 °F 27.9 °F 29.85 in West 11 mph 11 mph 69% 0.00 in 0 W/m2
00:25 37 °F 27.8 °F 29.85 in NW 10 mph 11 mph 69% 0.00 in 0 W/m2
00:30 36.9 °F 28 °F 29.85 in NW 9 mph 14 mph 70% 0.00 in 0 W/m2
00:35 36.8 °F 27.9 °F 29.86 in West 8 mph 14 mph 70% 0.00 in 0 W/m2
00:40 36.7 °F 27.8 °F 29.85 in NW 7 mph 10 mph 70% 0.00 in 0 W/m2
00:45 36.7 °F 27.8 °F 29.86 in West 7 mph 10 mph 70% 0.00 in 0 W/m2
00:50 36.6 °F 27.4 °F 29.86 in West 8 mph 8 mph 69% 0.00 in 0 W/m2
00:55 36.5 °F 27.6 °F 29.86 in NW 8 mph 15 mph 70% 0.00 in 0 W/m2
01:00 36.4 °F 27.2 °F 29.86 in NW 8 mph 8 mph 69% 0.00 in 0 W/m2
01:05 36.4 °F 27.5 °F 29.86 in WNW 7 mph 10 mph 70% 0.00 in 0 W/m2
01:10 36.3 °F 27.1 °F 29.86 in NW 7 mph 7 mph 69% 0.00 in 0 W/m2
01:20 36.1 °F 26.9 °F 29.87 in West 8 mph 15 mph 69% 0.00 in 0 W/m2
01:25 36.1 °F 26.6 °F 29.86 in NW 9 mph 16 mph 68% 0.00 in 0 W/m2
01:30 36.1 °F 26.6 °F 29.86 in West 9 mph 9 mph 68% 0.00 in 0 W/m2
01:40 36.1 °F 25.8 °F 29.87 in NW 8 mph 10 mph 66% 0.00 in 0 W/m2
01:45 36.1 °F 26.2 °F 29.87 in NW 8 mph 10 mph 67% 0.00 in 0 W/m2
01:50 36.1 °F 26.2 °F 29.87 in WSW 8 mph 8 mph 67% 0.00 in 0 W/m2
02:00 36 °F 26.5 °F 29.87 in North 6 mph 6 mph 68% 0.00 in 0 W/m2
02:10 35.9 °F 26.4 °F 29.87 in North 6 mph 10 mph 68% 0.00 in 0 W/m2
02:15 35.8 °F 26.3 °F 29.87 in NNW 6 mph 10 mph 68% 0.00 in 0 W/m2
02:20 35.6 °F 26.1 °F 29.87 in WNW 7 mph 7 mph 68% 0.00 in 0 W/m2
02:25 35.6 °F 26.4 °F 29.87 in WNW 6 mph 8 mph 69% 0.00 in 0 W/m2
02:30 35.5 °F 25.6 °F 29.88 in NW 7 mph 8 mph 67% 0.00 in 0 W/m2
02:35 35.4 °F 25.2 °F 29.87 in West 9 mph 13 mph 66% 0.00 in 0 W/m2
02:40 35.3 °F 24.7 °F 29.88 in NNW 11 mph 11 mph 65% 0.00 in 0 W/m2
02:45 35.1 °F 23.8 °F 29.88 in West 12 mph 12 mph 63% 0.00 in 0 W/m2
02:50 34.8 °F 23.5 °F 29.88 in NNW 11 mph 11 mph 63% 0.00 in 0 W/m2
02:55 34.6 °F 23.3 °F 29.88 in North 10 mph 11 mph 63% 0.00 in 0 W/m2
03:00 34.4 °F 23.1 °F 29.88 in WNW 10 mph 10 mph 63% 0.00 in 0 W/m2
03:05 34.4 °F 23.5 °F 29.88 in NW 8 mph 10 mph 64% 0.00 in 0 W/m2
03:10 34.3 °F 23.4 °F 29.88 in WNW 8 mph 8 mph 64% 0.00 in 0 W/m2
03:15 34.3 °F 23.4 °F 29.88 in NW 8 mph 8 mph 64% 0.00 in 0 W/m2
03:20 34.1 °F 23.2 °F 29.88 in NW 8 mph 9 mph 64% 0.00 in 0 W/m2
03:25 34.1 °F 23.2 °F 29.88 in NW 8 mph 13 mph 64% 0.00 in 0 W/m2
03:30 34.1 °F 23.2 °F 29.88 in West 8 mph 13 mph 64% 0.00 in 0 W/m2
03:35 34.1 °F 23.2 °F 29.88 in WNW 7 mph 13 mph 64% 0.00 in 0 W/m2
03:40 34.1 °F 23.2 °F 29.88 in NW 7 mph 7 mph 64% 0.00 in 0 W/m2
03:45 34.2 °F 23.3 °F 29.88 in NW 7 mph 7 mph 64% 0.00 in 0 W/m2
03:50 34.1 °F 23.2 °F 29.89 in West 6 mph 7 mph 64% 0.00 in 0 W/m2
03:55 34.2 °F 23.3 °F 29.89 in WNW 6 mph 7 mph 64% 0.00 in 0 W/m2
04:00 34.3 °F 23.7 °F 29.89 in WSW 6 mph 9 mph 65% 0.00 in 0 W/m2
04:05 34.3 °F 23.7 °F 29.89 in West 6 mph 9 mph 65% 0.00 in 0 W/m2
04:10 34.3 °F 23.7 °F 29.89 in WNW 5 mph 7 mph 65% 0.00 in 0 W/m2
04:15 34.3 °F 23.7 °F 29.89 in NNW 5 mph 7 mph 65% 0.00 in 0 W/m2
04:20 34.3 °F 23.7 °F 29.90 in NW 6 mph 6 mph 65% 0.00 in 0 W/m2
04:25 34.3 °F 23.4 °F 29.90 in WSW 7 mph 10 mph 64% 0.00 in 0 W/m2
04:30 34.3 °F 23.7 °F 29.90 in WNW 6 mph 8 mph 65% 0.00 in 0 W/m2
04:35 34.4 °F 24.2 °F 29.90 in West 6 mph 8 mph 66% 0.00 in 0 W/m2
04:40 34.4 °F 24.2 °F 29.90 in NW 6 mph 11 mph 66% 0.00 in 0 W/m2
04:45 34.4 °F 23.8 °F 29.91 in West 7 mph 11 mph 65% 0.00 in 0 W/m2
04:50 34.3 °F 23.4 °F 29.91 in West 7 mph 7 mph 64% 0.00 in 0 W/m2
04:55 34.1 °F 23.2 °F 29.90 in NNW 7 mph 11 mph 64% 0.00 in 0 W/m2
05:00 34.1 °F 22.8 °F 29.90 in NW 8 mph 8 mph 63% 0.00 in 0 W/m2
05:05 34 °F 22.7 °F 29.90 in NNW 8 mph 11 mph 63% 0.00 in 0 W/m2
05:10 34 °F 22.7 °F 29.91 in NNW 7 mph 7 mph 63% 0.00 in 0 W/m2
05:15 34.1 °F 23.2 °F 29.91 in West 7 mph 8 mph 64% 0.00 in 0 W/m2
05:20 34.1 °F 23.2 °F 29.91 in NW 6 mph 9 mph 64% 0.00 in 0 W/m2
05:25 34.1 °F 23.2 °F 29.90 in West 7 mph 13 mph 64% 0.00 in 0 W/m2
05:35 34.1 °F 23.2 °F 29.91 in NW 8 mph 9 mph 64% 0.00 in 0 W/m2
05:45 34 °F 23.1 °F 29.91 in NW 8 mph 14 mph 64% 0.00 in 0 W/m2
06:00 33.6 °F 22 °F 29.91 in NW 8 mph 8 mph 62% 0.00 in 0 W/m2
06:05 33.5 °F 22.2 °F 29.92 in NW 8 mph 10 mph 63% 0.00 in 0 W/m2
06:10 33.3 °F 22.1 °F 29.92 in WNW 9 mph 11 mph 63% 0.00 in 0 W/m2
06:15 33.2 °F 21.6 °F 29.92 in NW 9 mph 11 mph 62% 0.00 in 0 W/m2
06:20 33 °F 21.8 °F 29.92 in WNW 9 mph 10 mph 63% 0.00 in 0 W/m2
06:25 32.8 °F 21.2 °F 29.92 in NW 8 mph 10 mph 62% 0.00 in 0 W/m2
06:30 32.7 °F 21.5 °F 29.92 in WNW 8 mph 8 mph 63% 0.00 in 0 W/m2
06:40 32.8 °F 22 °F 29.93 in WSW 9 mph 9 mph 64% 0.00 in 0 W/m2
06:45 32.8 °F 22 °F 29.93 in NW 10 mph 15 mph 64% 0.00 in 7 W/m2
06:50 32.8 °F 21.2 °F 29.92 in WNW 9 mph 9 mph 62% 0.00 in 9 W/m2
06:55 32.8 °F 21.6 °F 29.93 in NW 9 mph 9 mph 63% 0.00 in 9 W/m2
07:00 32.9 °F 21.7 °F 29.93 in WNW 9 mph 17 mph 63% 0.00 in 14 W/m2
07:05 32.8 °F 21.2 °F 29.93 in WNW 9 mph 17 mph 62% 0.00 in 16 W/m2
07:10 32.8 °F 21.2 °F 29.93 in North 9 mph 10 mph 62% 0.00 in 18 W/m2
07:15 32.9 °F 21.7 °F 29.92 in NNW 8 mph 10 mph 63% 0.00 in 26 W/m2
07:20 33 °F 21.8 °F 29.92 in NNW 8 mph 8 mph 63% 0.00 in 51 W/m2
07:25 33 °F 21.8 °F 29.93 in NNW 9 mph 9 mph 63% 0.00 in 47 W/m2
07:30 33.1 °F 21.9 °F 29.93 in WNW 8 mph 8 mph 63% 0.00 in 39 W/m2
07:35 33.2 °F 22 °F 29.94 in WNW 9 mph 9 mph 63% 0.00 in 33 W/m2
07:40 33.2 °F 22 °F 29.94 in NW 9 mph 9 mph 63% 0.00 in 37 W/m2
07:45 33.3 °F 22.4 °F 29.94 in NW 8 mph 9 mph 64% 0.00 in 47 W/m2
07:50 33.3 °F 22.1 °F 29.94 in NW 8 mph 8 mph 63% 0.00 in 46 W/m2
07:55 33.4 °F 22.5 °F 29.94 in WNW 8 mph 10 mph 64% 0.00 in 46 W/m2
08:00 33.5 °F 22.6 °F 29.94 in North 8 mph 8 mph 64% 0.00 in 42 W/m2
08:05 33.6 °F 22.7 °F 29.94 in NW 8 mph 8 mph 64% 0.00 in 56 W/m2
08:10 33.6 °F 22.3 °F 29.94 in North 7 mph 7 mph 63% 0.00 in 76 W/m2
08:15 33.7 °F 22.4 °F 29.94 in NW 6 mph 7 mph 63% 0.00 in 60 W/m2
08:20 33.7 °F 22.1 °F 29.95 in WNW 7 mph 7 mph 62% 0.00 in 79 W/m2
08:25 33.7 °F 22.1 °F 29.96 in NNW 8 mph 9 mph 62% 0.00 in 72 W/m2
08:30 33.8 °F 22.5 °F 29.96 in West 8 mph 8 mph 63% 0.00 in 83 W/m2
08:35 33.9 °F 22.2 °F 29.96 in WNW 8 mph 9 mph 62% 0.00 in 84 W/m2
08:40 33.9 °F 22.2 °F 29.96 in WNW 8 mph 8 mph 62% 0.00 in 88 W/m2
08:45 33.9 °F 21.9 °F 29.96 in West 9 mph 9 mph 61% 0.00 in 86 W/m2
08:50 33.9 °F 22.6 °F 29.96 in NW 9 mph 9 mph 63% 0.00 in 79 W/m2
09:10 34.2 °F 22.9 °F 29.96 in NNW 7 mph 7 mph 63% 0.00 in 74 W/m2
09:30 34.5 °F 23.2 °F 29.97 in NW 6 mph 10 mph 63% 0.00 in 141 W/m2
09:35 34.6 °F 22.9 °F 29.97 in WSW 8 mph 10 mph 62% 0.00 in 153 W/m2
09:50 34.8 °F 23.1 °F 29.97 in WNW 6 mph 6 mph 62% 0.00 in 123 W/m2
10:00 34.9 °F 23.6 °F 29.97 in West 7 mph 7 mph 63% 0.00 in 144 W/m2
10:05 34.8 °F 23.1 °F 29.97 in WNW 7 mph 10 mph 62% 0.00 in 151 W/m2
10:10 34.9 °F 23.6 °F 29.97 in NW 7 mph 7 mph 63% 0.00 in 163 W/m2
10:20 35 °F 23.3 °F 29.98 in NW 6 mph 8 mph 62% 0.00 in 151 W/m2
10:25 35.1 °F 23.8 °F 29.97 in WNW 6 mph 8 mph 63% 0.00 in 149 W/m2
10:30 35.2 °F 23.9 °F 29.98 in NW 7 mph 7 mph 63% 0.00 in 149 W/m2
10:40 35.3 °F 24 °F 29.98 in WNW 6 mph 9 mph 63% 0.00 in 172 W/m2
10:45 35.4 °F 24 °F 29.98 in West 5 mph 14 mph 63% 0.00 in 200 W/m2
10:55 35.7 °F 24.3 °F 29.98 in NW 5 mph 6 mph 63% 0.00 in 211 W/m2
11:00 35.9 °F 24.5 °F 29.98 in NW 5 mph 5 mph 63% 0.00 in 193 W/m2
11:05 35.9 °F 24.5 °F 29.98 in NW 6 mph 6 mph 63% 0.00 in 195 W/m2
11:10 36.1 °F 24.7 °F 29.98 in WNW 6 mph 6 mph 63% 0.00 in 218 W/m2
11:15 36.2 °F 24.4 °F 29.98 in NW 6 mph 6 mph 62% 0.00 in 248 W/m2
11:20 36.4 °F 24.6 °F 29.98 in NNW 5 mph 10 mph 62% 0.00 in 264 W/m2
11:25 36.4 °F 25 °F 29.99 in West 5 mph 10 mph 63% 0.00 in 220 W/m2
11:30 36.5 °F 24.7 °F 29.99 in WNW 6 mph 6 mph 62% 0.00 in 223 W/m2
11:35 36.6 °F 24.8 °F 29.99 in West 5 mph 8 mph 62% 0.00 in 253 W/m2
11:40 36.7 °F 24.9 °F 29.99 in WNW 6 mph 11 mph 62% 0.00 in 244 W/m2
11:45 36.7 °F 25.3 °F 29.99 in West 7 mph 11 mph 63% 0.00 in 287 W/m2
11:50 36.9 °F 25.1 °F 29.99 in West 7 mph 7 mph 62% 0.00 in 278 W/m2
11:55 37 °F 25.2 °F 30.00 in NW 6 mph 8 mph 62% 0.00 in 332 W/m2
12:00 37.2 °F 25 °F 30.00 in West 6 mph 6 mph 61% 0.00 in 274 W/m2
14:35 40.9 °F 25.5 °F 30.00 in WNW 6 mph 6 mph 54% 0.00 in 548 W/m2
14:40 41.2 °F 24.9 °F 30.00 in WNW 6 mph 6 mph 52% 0.00 in 450 W/m2
14:45 41 °F 26.1 °F 30.00 in WSW 5 mph 6 mph 55% 0.00 in 366 W/m2
14:55 40.8 °F 25.9 °F 30.00 in WSW 5 mph 9 mph 55% 0.00 in 429 W/m2
15:00 40.5 °F 24.7 °F 30.00 in West 5 mph 6 mph 53% 0.00 in 369 W/m2
15:05 40.6 °F 23.9 °F 30.00 in WSW 5 mph 6 mph 51% 0.00 in 483 W/m2
15:10 40.7 °F 25.3 °F 29.99 in West 6 mph 6 mph 54% 0.00 in 450 W/m2
15:15 41 °F 25.2 °F 30.00 in SW 6 mph 6 mph 53% 0.00 in 540 W/m2
15:20 40.9 °F 24.1 °F 29.99 in West 5 mph 6 mph 51% 0.00 in 508 W/m2
15:25 40.8 °F 23.1 °F 29.99 in NW 5 mph 9 mph 49% 0.00 in 448 W/m2
15:30 41.3 °F 25 °F 29.99 in WNW 6 mph 6 mph 52% 0.00 in 471 W/m2
15:40 41.4 °F 25.5 °F 29.99 in NNW 5 mph 5 mph 53% 0.00 in 318 W/m2
15:50 41 °F 25.2 °F 29.99 in WNW 4 mph 4 mph 53% 0.00 in 248 W/m2
15:55 40.7 °F 23.5 °F 29.99 in WSW 4 mph 4 mph 50% 0.00 in 285 W/m2
16:05 40.7 °F 23 °F 29.99 in West 5 mph 11 mph 49% 0.00 in 220 W/m2
16:10 41 °F 24.7 °F 29.99 in NW 5 mph 5 mph 52% 0.00 in 197 W/m2
16:15 41 °F 23.3 °F 29.99 in NW 4 mph 5 mph 49% 0.00 in 179 W/m2
16:25 40.5 °F 24.2 °F 29.98 in WSW 4 mph 8 mph 52% 0.00 in 163 W/m2
16:35 40.5 °F 23.3 °F 29.99 in NW 5 mph 10 mph 50% 0.00 in 160 W/m2
16:40 40.6 °F 23.9 °F 29.98 in NW 5 mph 5 mph 51% 0.00 in 153 W/m2
16:45 40.7 °F 24.4 °F 29.98 in WNW 3 mph 7 mph 52% 0.00 in 179 W/m2
16:50 40.5 °F 23.3 °F 29.98 in WSW 4 mph 5 mph 50% 0.00 in 176 W/m2
16:55 40.6 °F 23.4 °F 29.98 in NW 6 mph 6 mph 50% 0.00 in 276 W/m2
17:00 40.7 °F 23 °F 29.99 in WNW 5 mph 5 mph 49% 0.00 in 227 W/m2
17:05 41 °F 23.3 °F 29.98 in WNW 5 mph 6 mph 49% 0.00 in 206 W/m2
17:10 41.2 °F 23.9 °F 29.98 in NW 4 mph 8 mph 50% 0.00 in 236 W/m2
17:15 40.9 °F 23.2 °F 29.98 in NNW 5 mph 8 mph 49% 0.00 in 218 W/m2
17:20 40.9 °F 22.7 °F 29.99 in WNW 6 mph 7 mph 48% 0.00 in 158 W/m2
17:25 40.7 °F 23.5 °F 29.98 in West 5 mph 7 mph 50% 0.00 in 135 W/m2
17:30 40.6 °F 23.9 °F 29.98 in NNW 5 mph 11 mph 51% 0.00 in 171 W/m2
17:35 40.6 °F 23.4 °F 29.98 in NW 6 mph 11 mph 50% 0.00 in 206 W/m2
17:40 40.8 °F 23.6 °F 29.98 in NNW 5 mph 5 mph 50% 0.00 in 209 W/m2
17:45 40.8 °F 23.1 °F 29.99 in NW 4 mph 5 mph 49% 0.00 in 193 W/m2
17:50 40.9 °F 23.7 °F 29.99 in West 5 mph 5 mph 50% 0.00 in 179 W/m2
17:55 40.6 °F 23.4 °F 29.99 in WSW 5 mph 5 mph 50% 0.00 in 167 W/m2
18:00 40.5 °F 23.3 °F 29.99 in NW 5 mph 5 mph 50% 0.00 in 163 W/m2
18:05 40.4 °F 23.2 °F 29.99 in NNW 6 mph 9 mph 50% 0.00 in 160 W/m2
18:10 40.5 °F 23.3 °F 29.99 in WNW 5 mph 7 mph 50% 0.00 in 149 W/m2
18:15 40.5 °F 23.8 °F 29.99 in NNW 5 mph 7 mph 51% 0.00 in 142 W/m2
18:20 40.5 °F 24.2 °F 29.99 in NNW 5 mph 5 mph 52% 0.00 in 141 W/m2
18:25 40.5 °F 23.8 °F 29.99 in NNW 4 mph 5 mph 51% 0.00 in 130 W/m2
18:30 40.5 °F 23.8 °F 29.99 in North 3 mph 3 mph 51% 0.00 in 120 W/m2
18:35 40.2 °F 23.5 °F 29.99 in NW 4 mph 6 mph 51% 0.00 in 109 W/m2
18:40 40.2 °F 24 °F 30.00 in NNW 5 mph 5 mph 52% 0.00 in 107 W/m2
18:45 40 °F 22.8 °F 30.00 in WNW 4 mph 5 mph 50% 0.00 in 105 W/m2
18:50 40 °F 22.4 °F 30.00 in NW 5 mph 5 mph 49% 0.00 in 102 W/m2
18:55 39.9 °F 22.7 °F 30.00 in NW 5 mph 5 mph 50% 0.00 in 98 W/m2
19:00 39.9 °F 23.2 °F 30.00 in North 4 mph 4 mph 51% 0.00 in 95 W/m2
19:05 39.8 °F 26.2 °F 30.00 in North 4 mph 4 mph 58% 0.00 in 76 W/m2
19:10 39.8 °F 27 °F 30.00 in NNW 4 mph 4 mph 60% 0.00 in 58 W/m2
19:15 39.6 °F 27.2 °F 30.00 in NW 4 mph 4 mph 61% 0.00 in 58 W/m2
19:20 39.4 °F 26.7 °F 30.00 in North 3 mph 4 mph 60% 0.00 in 53 W/m2
19:25 39.3 °F 27 °F 30.00 in NNW 3 mph 4 mph 61% 0.00 in 47 W/m2
19:30 39.1 °F 27.2 °F 30.01 in North 3 mph 3 mph 62% 0.00 in 44 W/m2
19:45 38.4 °F 26.9 °F 30.01 in North 3 mph 3 mph 63% 0.00 in 33 W/m2
19:50 38.3 °F 27.9 °F 30.01 in NE 3 mph 3 mph 66% 0.00 in 25 W/m2
19:55 38.1 °F 27.7 °F 30.01 in NNE 3 mph 3 mph 66% 0.00 in 21 W/m2
20:00 37.9 °F 27.9 °F 30.00 in NE 4 mph 4 mph 67% 0.00 in 19 W/m2
20:15 37.4 °F 27.4 °F 30.01 in NE 3 mph 5 mph 67% 0.00 in 7 W/m2
20:20 37.3 °F 27.7 °F 30.01 in East 3 mph 3 mph 68% 0.00 in 7 W/m2
20:25 37.1 °F 27.5 °F 30.01 in East 4 mph 9 mph 68% 0.00 in 5 W/m2
20:30 37 °F 27.4 °F 30.01 in NE 4 mph 4 mph 68% 0.00 in 0 W/m2
20:35 36.9 °F 27.3 °F 30.01 in ESE 4 mph 6 mph 68% 0.00 in 0 W/m2
20:40 36.7 °F 27.5 °F 30.02 in NE 4 mph 4 mph 69% 0.00 in 0 W/m2
20:45 36.6 °F 27.7 °F 30.02 in East 4 mph 6 mph 70% 0.00 in 0 W/m2
20:50 36.5 °F 27.6 °F 30.02 in ESE 4 mph 4 mph 70% 0.00 in 0 W/m2
20:55 36.4 °F 27.9 °F 30.02 in ENE 3 mph 4 mph 71% 0.00 in 0 W/m2
21:00 36.4 °F 27.5 °F 30.01 in East 3 mph 6 mph 70% 0.00 in 0 W/m2
21:05 36.2 °F 27.4 °F 30.02 in ENE 3 mph 6 mph 70% 0.00 in 0 W/m2
21:10 35.9 °F 27.1 °F 30.02 in East 3 mph 3 mph 70% 0.00 in 0 W/m2
21:15 35.8 °F 27 °F 30.02 in ENE 4 mph 7 mph 70% 0.00 in 0 W/m2
21:20 35.7 °F 27.2 °F 30.02 in ENE 4 mph 4 mph 71% 0.00 in 0 W/m2
21:25 35.6 °F 27.1 °F 30.02 in East 3 mph 4 mph 71% 0.00 in 0 W/m2
21:30 35.5 °F 27 °F 30.02 in East 4 mph 4 mph 71% 0.00 in 0 W/m2
21:35 35.3 °F 26.8 °F 30.02 in East 4 mph 4 mph 71% 0.00 in 0 W/m2
21:40 35.2 °F 26.7 °F 30.02 in ENE 3 mph 3 mph 71% 0.00 in 0 W/m2
21:45 35.2 °F 26.7 °F 30.03 in East 3 mph 3 mph 71% 0.00 in 0 W/m2
21:55 34.9 °F 26.4 °F 30.02 in East 3 mph 3 mph 71% 0.00 in 0 W/m2
22:10 34.6 °F 26.5 °F 30.02 in East 3 mph 3 mph 72% 0.00 in 0 W/m2
22:15 34.5 °F 26.4 °F 30.02 in East 2 mph 3 mph 72% 0.00 in 0 W/m2
22:20 34.4 °F 26.3 °F 30.02 in East 2 mph 2 mph 72% 0.00 in 0 W/m2
22:25 34.3 °F 26.2 °F 30.02 in ENE 2 mph 2 mph 72% 0.00 in 0 W/m2
22:30 34.3 °F 26.5 °F 30.02 in ENE 2 mph 2 mph 73% 0.00 in 0 W/m2
22:35 34.4 °F 27 °F 30.02 in East 2 mph 3 mph 74% 0.00 in 0 W/m2
22:40 34.4 °F 27 °F 30.02 in NE 3 mph 3 mph 74% 0.00 in 0 W/m2
22:45 34.5 °F 26.7 °F 30.02 in NE 3 mph 4 mph 73% 0.00 in 0 W/m2
22:50 34.5 °F 26.7 °F 30.02 in NE 3 mph 3 mph 73% 0.00 in 0 W/m2
22:55 34.5 °F 26.7 °F 30.03 in NE 4 mph 4 mph 73% 0.00 in 0 W/m2
23:10 34.6 °F 26.5 °F 30.03 in ENE 3 mph 5 mph 72% 0.00 in 0 W/m2
23:15 34.6 °F 26.5 °F 30.02 in ENE 3 mph 5 mph 72% 0.00 in 0 W/m2
23:20 34.6 °F 26.5 °F 30.02 in NE 3 mph 5 mph 72% 0.00 in 0 W/m2
23:30 34.5 °F 26.1 °F 30.02 in NNE 2 mph 2 mph 71% 0.00 in 0 W/m2
23:35 34.5 °F 25.7 °F 30.02 in NNE 3 mph 3 mph 70% 0.00 in 0 W/m2
23:40 34.6 °F 26.5 °F 30.02 in North 3 mph 5 mph 72% 0.00 in 0 W/m2
23:45 34.6 °F 26.2 °F 30.02 in North 3 mph 5 mph 71% 0.00 in 0 W/m2
23:50 34.6 °F 26.5 °F 30.02 in NE 3 mph 3 mph 72% 0.00 in 0 W/m2
23:55 34.6 °F 26.5 °F 30.02 in East 3 mph 4 mph 72% 0.00 in 0 W/m2
Sand Point, Michigan, USA
Compliments of Weather Underground - 2 mb